Time;durP1;ratioP1;P1;durP2;ratioP2;P2;SDS_P1;SDS_P2;PMS_P1;PMS_P2;Temp;Humidity;BMP_temperature;BMP_pressure;BME280_temperature;BME280_humidity;BME280_pressure;Samples;Min_cycle;Max_cycle;Signal;HPM_P1;HPM_P2
2022/08/31 00:04:43;;;;;;;2.65;2.45;;;18.60;99.90;;;;;;5014841;28;20195;-61
2022/08/31 00:07:09;;;;;;;2.50;2.30;;;18.50;99.90;;;;;;5013721;28;20222;-61
2022/08/31 00:09:35;;;;;;;6.38;2.38;;;18.60;99.90;;;;;;5015500;28;20191;-62
2022/08/31 00:12:01;;;;;;;3.38;2.65;;;18.70;99.90;;;;;;5015152;28;20223;-61
2022/08/31 00:14:27;;;;;;;2.65;1.98;;;18.70;99.90;;;;;;5014424;28;20251;-61
2022/08/31 00:16:53;;;;;;;2.15;1.98;;;18.70;99.90;;;;;;5031996;28;20194;-62
2022/08/31 00:19:19;;;;;;;3.03;2.50;;;18.70;99.90;;;;;;5017882;28;20182;-61
2022/08/31 00:21:44;;;;;;;2.35;1.70;;;18.60;99.90;;;;;;5023061;28;20183;-61
2022/08/31 00:24:12;;;;;;;2.45;2.03;;;18.70;99.90;;;;;;5013997;28;20195;-62
2022/08/31 00:26:39;;;;;;;3.35;2.28;;;18.70;99.90;;;;;;5014244;28;20211;-61
2022/08/31 00:29:05;;;;;;;1.77;1.67;;;18.60;99.90;;;;;;5012976;28;20233;-62
2022/08/31 00:31:31;;;;;;;3.30;2.00;;;18.60;99.90;;;;;;5019448;28;20187;-62
2022/08/31 00:33:56;;;;;;;2.67;2.58;;;18.60;99.90;;;;;;5029281;28;20278;-62
2022/08/31 00:36:25;;;;;;;2.85;2.53;;;18.70;99.90;;;;;;5020360;28;20270;-61
2022/08/31 00:38:51;;;;;;;4.40;2.45;;;18.80;99.90;;;;;;5015450;28;20194;-61
2022/08/31 00:41:21;;;;;;;2.45;1.92;;;18.80;99.90;;;;;;5019723;28;20179;-61
2022/08/31 00:43:53;;;;;;;2.60;2.25;;;18.90;99.90;;;;;;5019858;28;20187;-61
2022/08/31 00:46:25;;;;;;;2.38;2.17;;;19.00;99.90;;;;;;5013080;28;20266;-61
2022/08/31 00:49:05;;;;;;;4.50;2.17;;;18.90;99.90;;;;;;5014163;28;20194;-63
2022/08/31 00:51:35;;;;;;;3.20;2.47;;;19.00;99.90;;;;;;5024258;28;20264;-61
2022/08/31 00:54:01;;;;;;;2.63;2.42;;;18.80;99.90;;;;;;5023924;28;20219;-61
2022/08/31 00:56:30;;;;;;;2.22;2.08;;;18.80;99.90;;;;;;5019044;28;20178;-61
2022/08/31 00:58:56;;;;;;;2.38;2.20;;;18.70;99.90;;;;;;5029033;28;20187;-62
2022/08/31 01:01:22;;;;;;;2.35;2.03;;;18.80;99.90;;;;;;5019988;28;20183;-61
2022/08/31 01:03:48;;;;;;;6.03;2.67;;;19.00;99.90;;;;;;5017077;28;20253;-61
2022/08/31 01:06:16;;;;;;;2.50;2.35;;;18.90;99.90;;;;;;5024495;28;20652;-62
2022/08/31 01:08:44;;;;;;;3.22;2.92;;;18.80;99.90;;;;;;5026145;28;20200;-61
2022/08/31 01:11:11;;;;;;;2.38;2.22;;;18.80;99.90;;;;;;5025934;28;20190;-61
2022/08/31 01:13:36;;;;;;;4.15;2.83;;;18.70;99.90;;;;;;5019102;28;20269;-62
2022/08/31 01:16:09;;;;;;;3.67;2.28;;;18.70;99.90;;;;;;5020152;28;20346;-61
2022/08/31 01:18:35;;;;;;;2.60;2.40;;;18.60;99.90;;;;;;5019469;28;20266;-61
2022/08/31 01:21:28;;;;;;;4.00;2.80;;;18.60;99.90;;;;;;5027343;28;20182;-61
2022/08/31 01:23:57;;;;;;;4.20;3.30;;;18.60;99.90;;;;;;5023857;28;20270;-61
2022/08/31 01:26:26;;;;;;;3.10;2.60;;;18.70;99.90;;;;;;5027447;28;20270;-62
2022/08/31 01:28:57;;;;;;;3.97;2.90;;;18.70;99.90;;;;;;5014040;28;20195;-61
2022/08/31 01:31:26;;;;;;;4.53;2.47;;;18.50;99.90;;;;;;5019619;28;20233;-62
2022/08/31 01:33:52;;;;;;;2.63;2.42;;;18.50;99.90;;;;;;5013690;28;20214;-62
2022/08/31 01:36:19;;;;;;;2.80;2.60;;;18.50;99.90;;;;;;5025554;28;20218;-62
2022/08/31 01:38:46;;;;;;;3.10;2.70;;;18.40;99.90;;;;;;5015090;28;20192;-61
2022/08/31 01:41:12;;;;;;;7.40;2.28;;;18.40;99.90;;;;;;5018873;28;20178;-61
2022/08/31 01:43:37;;;;;;;3.55;2.45;;;18.40;99.90;;;;;;5030459;28;20193;-66
2022/08/31 01:46:09;;;;;;;4.82;2.83;;;18.30;99.90;;;;;;5017506;28;20186;-62
2022/08/31 01:48:35;;;;;;;2.45;2.25;;;18.30;99.90;;;;;;5013548;28;20213;-61
2022/08/31 01:51:03;;;;;;;4.13;2.80;;;18.30;99.90;;;;;;5021442;28;20194;-61
2022/08/31 01:53:29;;;;;;;3.05;2.72;;;18.30;99.90;;;;;;5015307;28;20276;-62
2022/08/31 01:55:55;;;;;;;2.30;2.20;;;18.30;99.90;;;;;;5061759;28;20175;-62
2022/08/31 01:58:20;;;;;;;3.03;2.70;;;18.40;99.90;;;;;;5024794;28;20282;-62
2022/08/31 02:00:46;;;;;;;3.03;2.78;;;18.50;99.90;;;;;;5058277;28;20187;-61
2022/08/31 02:03:12;;;;;;;4.20;2.50;;;18.50;99.90;;;;;;5020336;28;20190;-61
2022/08/31 02:05:38;;;;;;;3.10;2.90;;;18.40;99.90;;;;;;5028476;28;20670;-62
2022/08/31 02:08:06;;;;;;;3.60;2.78;;;18.40;99.90;;;;;;5027421;28;20223;-61
2022/08/31 02:10:32;;;;;;;3.08;2.80;;;18.40;99.90;;;;;;5015348;28;20230;-61
2022/08/31 02:12:59;;;;;;;16.42;6.13;;;18.30;99.90;;;;;;5020311;28;20184;-61
2022/08/31 02:15:24;;;;;;;6.10;3.72;;;18.30;99.90;;;;;;5014885;28;20203;-63
2022/08/31 02:17:50;;;;;;;4.47;3.58;;;18.30;99.90;;;;;;5031999;28;20210;-62
2022/08/31 02:20:17;;;;;;;3.83;2.47;;;18.30;99.90;;;;;;5024761;28;20187;-61
2022/08/31 02:22:43;;;;;;;4.30;3.50;;;18.40;99.90;;;;;;5016389;28;20312;-62
2022/08/31 02:25:09;;;;;;;5.40;3.67;;;18.30;99.90;;;;;;5035666;28;20195;-62
2022/08/31 02:27:36;;;;;;;6.03;3.42;;;18.20;99.90;;;;;;5023526;28;20298;-63
2022/08/31 02:30:05;;;;;;;4.03;3.47;;;18.10;99.90;;;;;;5031392;28;20191;-62
2022/08/31 02:32:31;;;;;;;3.72;3.42;;;18.00;99.90;;;;;;5023153;28;20179;-62
2022/08/31 02:34:56;;;;;;;5.15;3.55;;;18.00;99.90;;;;;;5029642;28;20185;-62
2022/08/31 02:37:22;;;;;;;4.03;3.33;;;17.90;99.90;;;;;;5058103;28;20247;-62
2022/08/31 02:39:48;;;;;;;4.00;3.53;;;17.90;99.90;;;;;;5015466;28;20202;-62
2022/08/31 02:42:13;;;;;;;4.63;3.22;;;18.00;99.90;;;;;;5016447;28;20194;-62
2022/08/31 02:44:39;;;;;;;3.95;3.55;;;17.90;99.90;;;;;;5030307;28;20195;-62
2022/08/31 02:47:05;;;;;;;3.42;3.15;;;17.80;99.90;;;;;;5015298;28;20233;-62
2022/08/31 02:49:31;;;;;;;2.83;2.63;;;17.90;99.90;;;;;;5016067;28;20191;-62
2022/08/31 02:51:57;;;;;;;3.55;3.25;;;17.90;99.90;;;;;;5017209;28;20247;-62
2022/08/31 02:54:23;;;;;;;3.80;3.20;;;17.80;99.90;;;;;;5048178;28;20210;-62
2022/08/31 02:56:49;;;;;;;8.32;3.55;;;17.60;99.90;;;;;;5016294;28;20205;-62
2022/08/31 02:59:15;;;;;;;3.75;3.35;;;17.80;99.90;;;;;;5027834;28;20195;-62
2022/08/31 03:01:41;;;;;;;4.85;3.58;;;17.90;99.90;;;;;;5020739;28;20653;-62
2022/08/31 03:04:07;;;;;;;3.10;2.83;;;17.90;99.90;;;;;;5019894;28;20183;-62
2022/08/31 03:06:33;;;;;;;3.78;3.28;;;18.00;99.90;;;;;;5015936;28;20197;-62
2022/08/31 03:08:59;;;;;;;4.70;4.13;;;18.00;99.90;;;;;;5020243;28;20191;-63
2022/08/31 03:11:25;;;;;;;7.10;3.10;;;17.90;99.90;;;;;;5022391;28;20175;-65
2022/08/31 03:13:51;;;;;;;3.90;3.60;;;17.70;99.90;;;;;;5040146;28;20194;-62
2022/08/31 03:16:17;;;;;;;5.25;3.20;;;17.80;99.90;;;;;;5016971;28;20187;-62
2022/08/31 03:18:43;;;;;;;7.22;2.97;;;17.70;99.90;;;;;;5027147;28;20600;-62
2022/08/31 03:21:09;;;;;;;4.07;3.33;;;17.80;99.90;;;;;;5020452;28;20663;-62
2022/08/31 03:23:35;;;;;;;3.70;3.38;;;17.90;99.90;;;;;;5021393;28;20256;-62
2022/08/31 03:26:04;;;;;;;5.68;3.35;;;17.80;99.90;;;;;;5025346;28;20541;-62
2022/08/31 03:28:30;;;;;;;4.22;3.42;;;17.70;99.90;;;;;;5024307;28;20211;-62
2022/08/31 03:30:56;;;;;;;3.58;3.00;;;17.60;99.90;;;;;;5014331;28;20656;-62
2022/08/31 03:33:21;;;;;;;3.63;2.92;;;17.60;99.90;;;;;;5027499;28;20321;-63
2022/08/31 03:35:47;;;;;;;3.42;3.13;;;17.60;99.90;;;;;;5023279;28;20640;-62
2022/08/31 03:38:14;;;;;;;3.35;3.10;;;17.50;99.90;;;;;;5017597;28;20557;-62
2022/08/31 03:40:41;;;;;;;4.13;3.28;;;17.40;99.90;;;;;;5013040;28;20282;-62
2022/08/31 03:43:10;;;;;;;3.40;3.10;;;17.40;99.90;;;;;;5013888;28;20272;-62
2022/08/31 03:45:39;;;;;;;5.43;3.53;;;17.40;99.90;;;;;;5014083;28;20222;-62
2022/08/31 03:48:06;;;;;;;3.80;3.50;;;17.40;99.90;;;;;;5014495;28;20211;-62
2022/08/31 03:50:34;;;;;;;4.97;3.35;;;17.50;99.90;;;;;;5020069;28;20222;-62
2022/08/31 03:53:04;;;;;;;6.88;3.67;;;17.30;99.90;;;;;;5015884;28;20637;-62
2022/08/31 03:55:36;;;;;;;9.10;3.45;;;17.20;99.90;;;;;;5013859;28;20195;-62
2022/08/31 03:58:02;;;;;;;3.83;3.33;;;17.20;99.90;;;;;;5017954;28;20266;-62
2022/08/31 04:00:27;;;;;;;3.53;3.17;;;17.20;99.90;;;;;;5012756;28;20270;-62
2022/08/31 04:02:58;;;;;;;4.18;3.78;;;17.20;99.90;;;;;;5012581;28;20186;-62
2022/08/31 04:05:28;;;;;;;4.78;4.38;;;17.20;99.90;;;;;;4998515;28;20548;-62
2022/08/31 04:07:53;;;;;;;6.10;4.13;;;17.20;99.90;;;;;;4976390;28;1100679;-63
2022/08/31 04:10:19;;;;;;;4.30;3.60;;;17.20;99.90;;;;;;5016531;28;20194;-62
2022/08/31 04:12:45;;;;;;;4.22;3.83;;;17.20;99.90;;;;;;5023652;28;20252;-62
2022/08/31 04:15:11;;;;;;;6.93;4.28;;;17.30;99.90;;;;;;5019759;28;20187;-62
2022/08/31 04:17:37;;;;;;;3.67;3.25;;;17.30;99.90;;;;;;5014260;28;20202;-62
2022/08/31 04:20:04;;;;;;;4.65;3.10;;;17.20;99.90;;;;;;5015967;28;20555;-62
2022/08/31 04:22:30;;;;;;;3.72;3.30;;;17.20;99.90;;;;;;5014323;28;20190;-62
2022/08/31 04:24:56;;;;;;;4.35;3.22;;;17.10;99.90;;;;;;5024299;28;20199;-62
2022/08/31 04:27:21;;;;;;;3.60;3.30;;;17.20;99.90;;;;;;5013129;28;20218;-62
2022/08/31 04:29:47;;;;;;;5.18;3.60;;;17.30;99.90;;;;;;5021633;28;20190;-64
2022/08/31 04:32:13;;;;;;;5.15;4.40;;;17.40;99.90;;;;;;5020523;28;20187;-63
2022/08/31 04:34:38;;;;;;;3.00;2.75;;;17.40;99.90;;;;;;5014039;28;20577;-62
2022/08/31 04:37:07;;;;;;;3.63;3.22;;;17.40;99.90;;;;;;5020419;28;20192;-64
2022/08/31 04:39:33;;;;;;;5.32;4.72;;;17.30;99.90;;;;;;5014761;28;20245;-63
2022/08/31 04:41:59;;;;;;;5.50;3.88;;;17.20;99.90;;;;;;5014084;28;20579;-62
2022/08/31 04:44:25;;;;;;;4.43;3.55;;;17.20;99.90;;;;;;5012712;28;20186;-63
2022/08/31 04:46:51;;;;;;;3.33;3.10;;;17.30;99.90;;;;;;5014507;28;20203;-63
2022/08/31 04:49:17;;;;;;;4.63;3.38;;;17.30;99.90;;;;;;5020879;28;20203;-62
2022/08/31 04:51:43;;;;;;;4.05;3.45;;;17.20;99.90;;;;;;5013799;28;20214;-64
2022/08/31 04:54:12;;;;;;;4.30;3.42;;;17.30;99.90;;;;;;5014653;28;20262;-64
2022/08/31 04:56:41;;;;;;;3.50;3.20;;;17.30;99.90;;;;;;5014223;28;20548;-64
2022/08/31 04:59:09;;;;;;;4.22;3.63;;;17.30;99.90;;;;;;5017140;28;20190;-64
2022/08/31 05:01:38;;;;;;;11.43;5.43;;;17.20;99.90;;;;;;5020484;28;20270;-64
2022/08/31 05:04:05;;;;;;;3.58;3.28;;;17.10;99.90;;;;;;5015807;28;20187;-64
2022/08/31 05:06:33;;;;;;;3.42;3.13;;;17.10;99.90;;;;;;5012504;28;20578;-64
2022/08/31 05:09:07;;;;;;;3.50;3.20;;;17.00;99.90;;;;;;5014483;28;20297;-64
2022/08/31 05:11:33;;;;;;;3.80;3.50;;;16.90;99.90;;;;;;5013936;28;20183;-64
2022/08/31 05:14:01;;;;;;;3.67;3.38;;;16.80;99.90;;;;;;5040584;28;20228;-64
2022/08/31 05:16:29;;;;;;;3.10;2.83;;;16.80;99.90;;;;;;5024930;28;20190;-64
2022/08/31 05:18:56;;;;;;;3.95;3.55;;;17.00;99.90;;;;;;5013467;28;20206;-63
2022/08/31 05:21:27;;;;;;;4.50;4.00;;;17.00;99.90;;;;;;5020308;28;20207;-64
2022/08/31 05:23:56;;;;;;;4.57;3.42;;;17.00;99.90;;;;;;5027128;28;20170;-64
2022/08/31 05:26:25;;;;;;;3.45;3.00;;;17.10;99.90;;;;;;5018356;28;20187;-63
2022/08/31 05:28:50;;;;;;;3.97;3.50;;;17.20;99.90;;;;;;5014328;28;20222;-63
2022/08/31 05:31:16;;;;;;;4.68;2.72;;;17.20;99.90;;;;;;5018998;28;20184;-64
2022/08/31 05:33:43;;;;;;;3.60;3.28;;;17.10;99.90;;;;;;5042206;28;20231;-64
2022/08/31 05:36:10;;;;;;;4.38;3.83;;;17.20;99.90;;;;;;5018965;28;20200;-64
2022/08/31 05:38:36;;;;;;;3.55;2.90;;;17.20;99.90;;;;;;5023141;28;20187;-64
2022/08/31 05:41:02;;;;;;;3.55;3.25;;;17.20;99.90;;;;;;5017686;28;20547;-64
2022/08/31 05:43:28;;;;;;;3.92;3.53;;;17.20;99.90;;;;;;5019409;28;20183;-66
2022/08/31 05:45:54;;;;;;;4.78;3.60;;;17.10;99.90;;;;;;5011869;28;20188;-64
2022/08/31 05:48:21;;;;;;;5.95;4.45;;;17.10;99.90;;;;;;5011483;28;20210;-63
2022/08/31 05:50:46;;;;;;;3.33;2.97;;;17.10;99.90;;;;;;5029830;28;20656;-64
2022/08/31 05:53:13;;;;;;;6.03;4.05;;;17.00;99.90;;;;;;5025399;28;20194;-63
2022/08/31 05:55:39;;;;;;;6.82;4.43;;;17.00;99.90;;;;;;5020404;28;20175;-64
2022/08/31 05:58:05;;;;;;;3.85;3.55;;;17.20;99.90;;;;;;5011781;28;20234;-64
2022/08/31 06:00:31;;;;;;;3.90;3.20;;;17.30;99.90;;;;;;5012964;28;20183;-64
2022/08/31 06:02:57;;;;;;;4.55;4.15;;;17.30;99.90;;;;;;5019260;28;20233;-64
2022/08/31 06:05:23;;;;;;;3.88;3.58;;;17.30;99.90;;;;;;5012966;28;20183;-64
2022/08/31 06:07:49;;;;;;;4.55;4.15;;;17.40;99.90;;;;;;5019265;28;20218;-63
2022/08/31 06:10:16;;;;;;;4.72;3.45;;;17.20;99.90;;;;;;5011118;28;20183;-64
2022/08/31 06:12:43;;;;;;;6.28;4.53;;;17.20;99.90;;;;;;5027376;28;20241;-62
2022/08/31 06:15:10;;;;;;;6.28;3.85;;;17.20;99.90;;;;;;5023144;28;20217;-63
2022/08/31 06:17:36;;;;;;;4.13;3.65;;;17.10;99.90;;;;;;5013389;28;20194;-63
2022/08/31 06:20:04;;;;;;;4.70;3.65;;;17.20;99.90;;;;;;5014439;28;20191;-64
2022/08/31 06:22:30;;;;;;;4.57;3.67;;;17.20;99.90;;;;;;5019628;28;20645;-63
2022/08/31 06:24:56;;;;;;;5.82;3.50;;;17.10;99.90;;;;;;5030324;28;20314;-64
2022/08/31 06:27:21;;;;;;;3.67;3.38;;;17.00;99.90;;;;;;5020369;28;20238;-64
2022/08/31 06:29:48;;;;;;;4.43;4.00;;;17.00;99.90;;;;;;5015909;28;20663;-64
2022/08/31 06:32:14;;;;;;;4.50;4.07;;;17.20;99.90;;;;;;5018489;28;20183;-64
2022/08/31 06:34:41;;;;;;;5.65;3.85;;;17.20;99.90;;;;;;5011332;28;20198;-64
2022/08/31 06:37:10;;;;;;;4.72;4.20;;;17.40;99.90;;;;;;5012435;28;20662;-64
2022/08/31 06:39:37;;;;;;;5.78;3.80;;;17.40;99.90;;;;;;5012665;28;20218;-64
2022/08/31 06:42:03;;;;;;;4.65;4.25;;;17.40;99.90;;;;;;5025746;28;20183;-64
2022/08/31 06:44:28;;;;;;;3.92;3.60;;;17.50;99.90;;;;;;5019208;28;20191;-64
2022/08/31 06:46:55;;;;;;;5.35;4.22;;;17.60;99.90;;;;;;5011020;28;20677;-64
2022/08/31 06:49:22;;;;;;;4.57;3.58;;;17.70;99.90;;;;;;5026100;28;20190;-65
2022/08/31 06:51:49;;;;;;;4.57;4.10;;;17.90;99.90;;;;;;5014415;28;20249;-64
2022/08/31 06:54:17;;;;;;;7.05;3.50;;;17.90;99.90;;;;;;5011279;28;20214;-63
2022/08/31 06:56:44;;;;;;;4.75;3.60;;;17.90;99.90;;;;;;5017919;28;20291;-63
2022/08/31 06:59:10;;;;;;;3.97;3.50;;;18.00;99.90;;;;;;5012354;28;20203;-63
2022/08/31 07:01:38;;;;;;;3.95;3.55;;;18.10;99.90;;;;;;5013179;28;20196;-62
2022/08/31 07:04:06;;;;;;;4.10;3.80;;;18.20;99.90;;;;;;5014485;28;20175;-62
2022/08/31 07:06:43;;;;;;;3.53;3.22;;;18.30;99.90;;;;;;5031119;28;20187;-63
2022/08/31 07:09:14;;;;;;;4.18;3.35;;;18.60;99.90;;;;;;5063038;28;20208;-62
2022/08/31 07:11:43;;;;;;;4.35;3.35;;;18.90;99.90;;;;;;5024415;28;20214;-63
2022/08/31 07:14:13;;;;;;;3.67;3.38;;;18.80;99.90;;;;;;5034919;28;20297;-62
2022/08/31 07:16:39;;;;;;;6.57;3.33;;;19.20;99.90;;;;;;5016962;28;20313;-63
2022/08/31 07:19:06;;;;;;;3.97;3.40;;;19.10;99.90;;;;;;5020322;28;20194;-63
2022/08/31 07:21:44;;;;;;;6.03;4.07;;;18.80;99.90;;;;;;5015468;28;20192;-62
2022/08/31 07:24:12;;;;;;;4.22;3.40;;;18.90;99.90;;;;;;5024349;28;20174;-62
2022/08/31 07:26:38;;;;;;;3.95;3.20;;;18.80;99.90;;;;;;5029569;28;20222;-63
2022/08/31 07:29:05;;;;;;;6.38;3.50;;;18.80;99.90;;;;;;5021488;28;20277;-62
2022/08/31 07:31:45;;;;;;;3.85;3.47;;;19.40;99.90;;;;;;5013866;28;20212;-63
2022/08/31 07:34:13;;;;;;;3.75;3.33;;;20.60;99.90;;;;;;5014473;28;20183;-63
2022/08/31 07:42:11;;;;;;;3.78;2.97;;;22.30;99.90;;;;;;5015478;28;20198;-63
2022/08/31 07:44:40;;;;;;;3.50;2.70;;;23.00;99.90;;;;;;5014457;28;20187;-62
2022/08/31 07:47:10;;;;;;;3.55;2.65;;;23.30;99.90;;;;;;5014982;28;20215;-63
2022/08/31 07:49:39;;;;;;;3.40;3.10;;;23.60;99.90;;;;;;5015050;28;20199;-63
2022/08/31 07:52:05;;;;;;;5.40;3.63;;;23.70;99.90;;;;;;5015031;28;20186;-63
2022/08/31 07:54:31;;;;;;;3.00;2.80;;;23.50;99.90;;;;;;5015246;28;20191;-63
2022/08/31 07:57:02;;;;;;;4.22;2.63;;;23.30;99.90;;;;;;5015956;28;20195;-64
2022/08/31 07:59:31;;;;;;;6.30;5.70;;;22.70;99.90;;;;;;5029427;28;20179;-64
2022/08/31 08:02:00;;;;;;;3.20;2.92;;;22.30;99.90;;;;;;5016119;28;20218;-63
2022/08/31 08:04:27;;;;;;;3.63;3.15;;;22.20;99.90;;;;;;5018436;28;20574;-65
2022/08/31 08:06:55;;;;;;;3.38;3.10;;;22.20;99.90;;;;;;5014745;28;20225;-63
2022/08/31 08:09:22;;;;;;;4.25;3.67;;;22.50;99.90;;;;;;5026810;28;20182;-63
2022/08/31 08:11:53;;;;;;;2.58;2.17;;;22.60;99.90;;;;;;5048324;28;20184;-65
2022/08/31 08:14:19;;;;;;;2.75;2.55;;;22.70;99.90;;;;;;5033752;28;20182;-63
2022/08/31 08:16:45;;;;;;;3.08;2.83;;;23.40;99.90;;;;;;5014425;28;20246;-64
2022/08/31 08:19:10;;;;;;;4.85;3.47;;;23.80;99.90;;;;;;5027664;28;20191;-62
2022/08/31 08:21:36;;;;;;;3.70;2.95;;;23.90;99.90;;;;;;5013619;28;20726;-62
2022/08/31 08:24:02;;;;;;;3.20;2.90;;;23.10;99.90;;;;;;5011047;28;20310;-62
2022/08/31 08:26:28;;;;;;;2.97;2.65;;;23.10;99.90;;;;;;5020814;28;20217;-63
2022/08/31 08:28:54;;;;;;;3.40;2.85;;;23.30;99.90;;;;;;5021647;28;20701;-63
2022/08/31 08:31:23;;;;;;;2.30;2.10;;;23.70;99.90;;;;;;5014775;28;20283;-63
2022/08/31 08:33:50;;;;;;;2.60;2.40;;;24.60;99.90;;;;;;5012690;28;20187;-63
2022/08/31 08:36:18;;;;;;;3.72;2.95;;;25.10;99.90;;;;;;5021673;28;20217;-64
2022/08/31 08:38:46;;;;;;;3.63;3.17;;;25.30;99.90;;;;;;5028714;28;20546;-61
2022/08/31 08:41:21;;;;;;;3.90;3.10;;;24.30;99.90;;;;;;5018942;28;20612;-62
2022/08/31 08:43:50;;;;;;;5.18;3.00;;;23.50;99.90;;;;;;5018554;28;20210;-62
2022/08/31 08:46:20;;;;;;;3.75;3.10;;;23.80;99.90;;;;;;5022647;28;20257;-61
2022/08/31 08:48:47;;;;;;;3.25;2.95;;;23.00;99.90;;;;;;5013504;28;20296;-63
2022/08/31 08:51:20;;;;;;;3.80;3.25;;;22.40;99.90;;;;;;5014027;28;20586;-61
2022/08/31 08:53:48;;;;;;;4.07;3.72;;;22.00;99.90;;;;;;5013740;28;20648;-61
2022/08/31 08:56:14;;;;;;;3.58;2.92;;;21.90;99.90;;;;;;5017356;28;20191;-62
2022/08/31 08:58:42;;;;;;;5.35;2.53;;;21.30;99.90;;;;;;5012499;28;20199;-62
2022/08/31 09:01:12;;;;;;;3.75;3.00;;;21.20;99.90;;;;;;5045221;28;20187;-61
2022/08/31 09:04:19;;;;;;;2.75;2.55;;;21.20;99.90;;;;;;5014332;28;20191;-61
2022/08/31 09:06:53;;;;;;;3.88;3.58;;;20.90;99.90;;;;;;4996661;28;20213;-62
2022/08/31 09:09:56;;;;;;;4.80;3.60;;;20.70;99.90;;;;;;5001107;28;20298;-62
2022/08/31 09:12:47;;;;;;;4.45;3.42;;;20.80;99.90;;;;;;5015665;28;20194;-62
2022/08/31 09:16:04;;;;;;;3.47;3.17;;;20.50;99.90;;;;;;5009714;28;20540;-61
2022/08/31 09:18:39;;;;;;;3.50;3.20;;;20.50;99.90;;;;;;5015265;28;20637;-62
2022/08/31 09:21:16;;;;;;;4.03;2.92;;;20.60;99.90;;;;;;5025318;28;20545;-61
2022/08/31 09:23:48;;;;;;;2.47;2.28;;;20.70;99.90;;;;;;5020671;28;20187;-61
2022/08/31 09:26:19;;;;;;;2.38;2.13;;;21.10;99.90;;;;;;5053072;28;20671;-62
2022/08/31 09:28:47;;;;;;;3.72;2.78;;;21.20;99.90;;;;;;5025801;28;20226;-62
2022/08/31 09:31:54;;;;;;;3.05;2.75;;;21.40;99.90;;;;;;4997038;28;20195;-61
2022/08/31 09:34:32;;;;;;;3.60;2.90;;;21.80;99.90;;;;;;5030582;28;20329;-62
2022/08/31 09:37:16;;;;;;;3.30;2.72;;;21.60;99.90;;;;;;5025018;28;20199;-62
2022/08/31 09:39:47;;;;;;;2.95;2.75;;;21.60;99.90;;;;;;5013138;28;20587;-63
2022/08/31 09:42:32;;;;;;;5.07;3.47;;;21.50;99.90;;;;;;5057299;28;20193;-61
2022/08/31 09:45:10;;;;;;;2.78;2.50;;;21.20;99.90;;;;;;5014707;28;20636;-61
2022/08/31 09:47:50;;;;;;;4.07;3.67;;;21.40;99.90;;;;;;5018797;28;20264;-62
2022/08/31 09:50:44;;;;;;;3.05;2.58;;;21.50;99.90;;;;;;5027731;28;20210;-63
2022/08/31 09:56:12;;;;;;;3.63;2.90;;;21.50;99.90;;;;;;5020221;28;20666;-61
2022/08/31 09:58:40;;;;;;;5.35;3.67;;;21.30;99.90;;;;;;5018871;28;20548;-62
2022/08/31 10:01:29;;;;;;;5.57;3.10;;;21.50;99.90;;;;;;5019882;28;20581;-62
2022/08/31 10:04:16;;;;;;;5.95;3.22;;;21.60;99.90;;;;;;5016474;28;20230;-62
2022/08/31 10:07:04;;;;;;;3.22;2.90;;;21.90;99.90;;;;;;5012765;28;20547;-62
2022/08/31 10:09:58;;;;;;;3.70;3.30;;;21.70;99.90;;;;;;5013273;28;20241;-61
2022/08/31 10:12:35;;;;;;;4.20;3.85;;;21.70;99.90;;;;;;5029482;28;20187;-64
2022/08/31 10:15:11;;;;;;;3.33;3.03;;;21.70;99.90;;;;;;5017288;28;20194;-61
2022/08/31 10:17:48;;;;;;;6.00;3.83;;;21.60;99.90;;;;;;5026291;28;20675;-61
2022/08/31 10:20:20;;;;;;;3.45;3.15;;;21.80;99.90;;;;;;5016852;28;20244;-63
2022/08/31 10:22:55;;;;;;;6.38;3.30;;;21.70;99.90;;;;;;5013864;28;20203;-62
2022/08/31 10:25:41;;;;;;;4.93;3.13;;;21.80;99.90;;;;;;5016720;28;20171;-62
2022/08/31 10:28:15;;;;;;;4.07;3.42;;;21.90;99.90;;;;;;5012117;28;20593;-63
2022/08/31 10:30:44;;;;;;;7.93;3.63;;;22.00;99.90;;;;;;5014321;28;20194;-63
2022/08/31 10:33:24;;;;;;;4.18;3.78;;;21.90;99.90;;;;;;5016979;28;20192;-63
2022/08/31 10:35:57;;;;;;;3.50;2.53;;;21.90;99.90;;;;;;5024468;28;20171;-62
2022/08/31 10:38:38;;;;;;;4.60;3.15;;;22.30;99.90;;;;;;5017469;28;20222;-62
2022/08/31 10:41:29;;;;;;;4.40;3.38;;;22.40;99.90;;;;;;5049734;28;20270;-63
2022/08/31 10:44:06;;;;;;;6.53;3.85;;;22.50;99.90;;;;;;5027368;28;20199;-62
2022/08/31 10:46:34;;;;;;;5.28;2.90;;;22.30;99.90;;;;;;5015708;28;20269;-62
2022/08/31 10:49:03;;;;;;;5.13;3.88;;;22.10;99.90;;;;;;5023776;28;20634;-63
2022/08/31 10:51:28;;;;;;;6.80;3.70;;;22.10;99.90;;;;;;5019187;28;20257;-63
2022/08/31 10:54:27;;;;;;;3.05;2.75;;;22.40;99.90;;;;;;5027932;28;20644;-62
2022/08/31 10:57:18;;;;;;;5.63;3.30;;;22.30;99.90;;;;;;5044614;28;20206;-63
2022/08/31 11:00:07;;;;;;;7.43;3.42;;;22.30;99.90;;;;;;5016416;28;20554;-62
2022/08/31 11:02:44;;;;;;;6.00;3.17;;;22.50;99.90;;;;;;5016293;28;20229;-62
2022/08/31 11:05:09;;;;;;;3.83;3.30;;;22.60;99.90;;;;;;5017591;28;20183;-63
2022/08/31 11:07:43;;;;;;;5.78;3.53;;;22.60;99.90;;;;;;5032299;28;20229;-62
2022/08/31 11:10:38;;;;;;;4.93;3.58;;;22.50;99.90;;;;;;5022402;28;20191;-62
2022/08/31 11:13:13;;;;;;;4.13;3.67;;;22.40;99.90;;;;;;5028484;28;20175;-61
2022/08/31 11:16:07;;;;;;;4.88;4.35;;;22.60;99.90;;;;;;5022678;28;20178;-62
2022/08/31 11:18:59;;;;;;;4.47;4.07;;;22.50;99.90;;;;;;5022010;28;20175;-63
2022/08/31 11:21:35;;;;;;;5.28;4.40;;;22.50;99.90;;;;;;5017375;28;20633;-62
2022/08/31 11:24:20;;;;;;;4.30;3.47;;;22.70;99.90;;;;;;5015922;28;20179;-62
2022/08/31 11:27:00;;;;;;;5.53;3.38;;;22.80;99.90;;;;;;5030494;28;20225;-62
2022/08/31 11:29:45;;;;;;;4.65;3.13;;;22.80;99.90;;;;;;5015825;28;20794;-64
2022/08/31 11:32:20;;;;;;;4.90;3.38;;;22.80;99.90;;;;;;5028331;28;20197;-62
2022/08/31 11:34:53;;;;;;;9.50;4.00;;;22.90;99.90;;;;;;5029614;28;20261;-62
2022/08/31 11:37:59;;;;;;;3.72;3.40;;;22.80;99.90;;;;;;5020441;28;20183;-62
2022/08/31 11:40:43;;;;;;;4.53;3.60;;;22.80;99.90;;;;;;5022261;28;20178;-62
2022/08/31 11:43:13;;;;;;;6.43;3.90;;;22.90;99.90;;;;;;5033807;28;20174;-62
2022/08/31 11:45:40;;;;;;;5.85;3.58;;;23.10;99.90;;;;;;5029643;28;20313;-62
2022/08/31 11:48:27;;;;;;;5.10;4.10;;;23.10;99.90;;;;;;5024959;28;20815;-62
2022/08/31 11:51:06;;;;;;;3.85;3.00;;;23.10;99.90;;;;;;5014954;28;20250;-62
2022/08/31 11:53:43;;;;;;;5.38;4.25;;;23.20;99.90;;;;;;5029340;28;20762;-63
2022/08/31 11:56:13;;;;;;;3.15;2.80;;;23.50;99.90;;;;;;5013464;28;20187;-61
2022/08/31 11:58:41;;;;;;;3.95;3.15;;;23.70;99.90;;;;;;5019163;28;20218;-62
2022/08/31 12:01:32;;;;;;;5.35;3.72;;;23.60;99.90;;;;;;5019556;28;20195;-63
2022/08/31 12:04:02;;;;;;;3.70;3.40;;;23.60;99.90;;;;;;5029141;28;20179;-62
2022/08/31 12:06:28;;;;;;;5.80;3.65;;;23.70;99.90;;;;;;5014628;28;20182;-62
2022/08/31 12:09:14;;;;;;;7.18;3.72;;;23.80;99.90;;;;;;5014251;28;20219;-62
2022/08/31 12:11:51;;;;;;;5.40;3.05;;;23.80;99.90;;;;;;5022866;28;20191;-62
2022/08/31 12:14:35;;;;;;;4.95;3.85;;;23.80;99.90;;;;;;5017397;28;20201;-62
2022/08/31 12:17:33;;;;;;;3.78;3.47;;;24.00;99.90;;;;;;5025452;28;20186;-62
2022/08/31 12:23:46;;;;;;;6.85;3.47;;;23.90;99.90;;;;;;5020621;28;20230;-62
2022/08/31 12:26:55;;;;;;;4.47;3.47;;;24.10;99.90;;;;;;5027845;28;20199;-61
2022/08/31 12:29:32;;;;;;;5.47;3.00;;;24.30;99.90;;;;;;5022917;28;20710;-61
2022/08/31 12:32:17;;;;;;;3.50;3.15;;;24.10;99.90;;;;;;5011597;28;20203;-62
2022/08/31 12:35:02;;;;;;;4.95;3.97;;;24.30;99.90;;;;;;5018674;28;20306;-61
2022/08/31 12:37:32;;;;;;;5.57;5.07;;;24.30;99.90;;;;;;5028511;28;20584;-61
2022/08/31 12:40:19;;;;;;;4.28;3.33;;;24.20;99.90;;;;;;5015901;28;20192;-62
2022/08/31 12:42:53;;;;;;;4.70;3.22;;;24.20;99.90;;;;;;5015026;28;20184;-61
2022/08/31 12:45:47;;;;;;;5.72;3.80;;;24.20;99.90;;;;;;5031906;28;20183;-61
2022/08/31 12:48:46;;;;;;;3.72;3.15;;;24.20;99.90;;;;;;5029421;28;20254;-64
2022/08/31 12:51:44;;;;;;;4.18;3.63;;;24.20;99.90;;;;;;5014346;28;20194;-61
2022/08/31 12:54:24;;;;;;;3.95;3.30;;;24.20;99.90;;;;;;5013892;28;20250;-62
2022/08/31 12:57:17;;;;;;;5.93;3.72;;;24.20;99.90;;;;;;5053978;28;20183;-62
2022/08/31 12:59:54;;;;;;;3.25;3.00;;;24.50;99.90;;;;;;5028522;28;20210;-61
2022/08/31 13:02:20;;;;;;;4.55;3.80;;;24.80;99.90;;;;;;5013619;28;20190;-61
2022/08/31 13:04:47;;;;;;;4.47;3.92;;;24.80;99.90;;;;;;5013684;28;20184;-63
2022/08/31 13:07:30;;;;;;;6.25;4.47;;;24.70;99.90;;;;;;5012453;28;20290;-63
2022/08/31 13:10:06;;;;;;;4.68;4.00;;;24.80;99.90;;;;;;5014288;28;20198;-63
2022/08/31 13:12:32;;;;;;;5.57;3.53;;;24.90;99.90;;;;;;5012062;28;20187;-62
2022/08/31 13:14:58;;;;;;;5.07;3.78;;;25.00;99.90;;;;;;5013526;28;20237;-62
2022/08/31 13:17:23;;;;;;;7.60;4.78;;;24.80;99.90;;;;;;5030647;28;20248;-62
2022/08/31 13:19:59;;;;;;;8.05;5.93;;;24.90;99.90;;;;;;5013554;28;20191;-62
2022/08/31 13:22:27;;;;;;;7.47;4.85;;;25.10;99.90;;;;;;5018908;28;20194;-62